createdAt,value
2022-10-10T00:00:02.266Z,0.00
2022-10-10T00:10:01.970Z,0.00
2022-10-10T00:20:01.576Z,0.00
2022-10-10T00:30:00.992Z,0.00
2022-10-10T00:40:01.915Z,0.00
2022-10-10T00:50:01.313Z,0.00
2022-10-10T01:00:00.985Z,0.00
2022-10-10T01:10:00.144Z,0.00
2022-10-10T01:20:01.691Z,0.00
2022-10-10T01:30:01.242Z,0.00
2022-10-10T01:40:01.438Z,0.00
2022-10-10T01:50:00.179Z,0.00
2022-10-10T02:00:01.010Z,0.00
2022-10-10T02:10:00.131Z,0.00
2022-10-10T02:20:01.041Z,0.00
2022-10-10T02:40:00.135Z,0.00
2022-10-10T02:50:01.060Z,0.00
2022-10-10T03:00:00.958Z,0.00
2022-10-10T03:10:01.129Z,0.00
2022-10-10T03:20:01.066Z,0.00
2022-10-10T03:30:00.166Z,0.00
2022-10-10T03:40:00.136Z,0.00
2022-10-10T03:50:01.575Z,0.00
2022-10-10T04:00:01.163Z,0.00
2022-10-10T04:10:00.780Z,0.00
2022-10-10T04:20:01.363Z,0.00
2022-10-10T04:30:01.062Z,0.00
2022-10-10T04:40:01.030Z,0.00
2022-10-10T04:50:01.551Z,0.23
2022-10-10T05:00:00.996Z,2.72
2022-10-10T05:10:00.167Z,6.67
2022-10-10T05:20:01.377Z,36.67
2022-10-10T05:30:01.090Z,96.67
2022-10-10T05:40:00.964Z,175.00
2022-10-10T05:50:01.313Z,261.67
2022-10-10T06:00:00.122Z,336.67
2022-10-10T06:10:01.041Z,353.33
2022-10-10T06:20:00.972Z,340.00
2022-10-10T06:30:00.136Z,431.67
2022-10-10T06:40:01.188Z,573.33
2022-10-10T06:50:00.173Z,623.33
2022-10-10T07:00:01.079Z,653.33
2022-10-10T07:10:00.144Z,608.33
2022-10-10T07:20:01.020Z,683.33
2022-10-10T07:30:01.253Z,1448.33
2022-10-10T07:40:01.212Z,913.33
2022-10-10T07:50:01.058Z,833.33
2022-10-10T08:00:00.136Z,1553.75
2022-10-10T08:10:00.162Z,1335.83
2022-10-10T08:20:00.145Z,875.00
2022-10-10T08:40:00.136Z,946.67
2022-10-10T08:50:01.043Z,1003.33
2022-10-10T09:00:01.052Z,1993.33
2022-10-10T09:10:00.150Z,2372.92
2022-10-10T09:20:00.113Z,2960.00
2022-10-10T09:30:00.852Z,3632.08
2022-10-10T09:40:01.880Z,2551.67
2022-10-10T09:50:00.222Z,6157.50
2022-10-10T10:00:02.341Z,6187.08
2022-10-10T10:20:01.491Z,10677.08
2022-10-10T10:30:03.147Z,9198.33
2022-10-10T10:40:00.964Z,20845.83
2022-10-10T10:50:00.968Z,12483.75
2022-10-10T11:00:21.520Z,23663.33
2022-10-10T11:10:00.160Z,24103.33
2022-10-10T11:20:01.053Z,24373.33
2022-10-10T11:30:01.722Z,25716.67
2022-10-10T11:40:01.235Z,25386.67
2022-10-10T11:50:01.303Z,24690.00
2022-10-10T12:00:00.143Z,24723.33
2022-10-10T12:10:01.017Z,24600.00
2022-10-10T12:20:01.867Z,24626.25
2022-10-10T12:30:01.354Z,24500.42
2022-10-10T12:40:01.010Z,24140.83
2022-10-10T12:50:00.990Z,23940.00
2022-10-10T13:00:02.345Z,23796.25
2022-10-10T13:10:01.086Z,23386.67
2022-10-10T13:20:01.077Z,24655.42
2022-10-10T13:30:02.198Z,24433.75
2022-10-10T13:40:01.288Z,6532.92
2022-10-10T13:50:01.107Z,24164.17
2022-10-10T14:00:01.249Z,22141.67
2022-10-10T14:10:01.019Z,20473.75
2022-10-10T14:20:01.308Z,18821.67
2022-10-10T14:30:01.056Z,17653.33
2022-10-10T14:40:01.021Z,16334.17
2022-10-10T14:50:01.398Z,14732.92
2022-10-10T15:00:01.033Z,13002.92
2022-10-10T15:10:31.954Z,10744.17
2022-10-10T15:20:00.151Z,7432.50
2022-10-10T15:30:01.346Z,1438.33
2022-10-10T15:40:01.105Z,2385.42
2022-10-10T15:50:01.100Z,1173.33
2022-10-10T16:00:01.054Z,363.33
2022-10-10T16:10:01.010Z,228.33
2022-10-10T16:20:01.883Z,98.33
2022-10-10T16:30:01.597Z,40.00
2022-10-10T16:40:01.947Z,10.00
2022-10-10T16:50:01.348Z,5.09
2022-10-10T17:00:01.237Z,0.68
2022-10-10T17:10:01.288Z,0.00
2022-10-10T17:20:01.305Z,0.00
2022-10-10T17:30:01.300Z,0.00
2022-10-10T17:40:01.036Z,0.00
2022-10-10T17:50:01.104Z,0.00
2022-10-10T18:00:01.274Z,0.00
2022-10-10T18:10:03.756Z,0.00
2022-10-10T18:20:01.322Z,0.00
2022-10-10T18:30:00.178Z,0.00
2022-10-10T18:40:02.260Z,0.00
2022-10-10T18:50:01.172Z,0.00
2022-10-10T19:00:01.010Z,0.00
2022-10-10T19:10:01.281Z,0.00
2022-10-10T19:20:00.996Z,0.00
2022-10-10T19:30:01.500Z,0.00
2022-10-10T19:40:00.981Z,0.00
2022-10-10T19:50:01.090Z,0.00
2022-10-10T20:00:02.540Z,0.00
2022-10-10T20:10:01.039Z,0.00
2022-10-10T20:20:01.218Z,0.00
2022-10-10T20:30:01.073Z,0.00
2022-10-10T20:40:01.041Z,0.00
2022-10-10T20:50:02.170Z,0.00
2022-10-10T21:00:01.152Z,0.00
2022-10-10T21:10:01.270Z,0.00
2022-10-10T21:20:01.251Z,0.00
2022-10-10T21:30:01.301Z,0.00
2022-10-10T21:40:00.979Z,0.00
2022-10-10T21:50:01.543Z,0.00
2022-10-10T22:00:01.944Z,0.00
2022-10-10T22:10:01.906Z,0.00
2022-10-10T22:20:00.976Z,0.00
2022-10-10T22:30:01.327Z,0.00
2022-10-10T22:40:00.999Z,0.00
2022-10-10T22:50:01.109Z,0.00
2022-10-10T23:00:01.021Z,0.00
2022-10-10T23:10:01.216Z,0.00
2022-10-10T23:20:00.133Z,0.00
2022-10-10T23:30:00.143Z,0.00
2022-10-10T23:40:01.263Z,0.00
2022-10-10T23:50:01.001Z,0.00
